sensor_id;sensor_type;location;lat;lon;timestamp;temperature;humidity
19483;DHT22;9882;51.166;6.992;2022-08-05T00:00:03;25.10;99.90
19483;DHT22;9882;51.166;6.992;2022-08-05T00:02:35;25.40;99.90
19483;DHT22;9882;51.166;6.992;2022-08-05T00:05:07;25.90;99.90
19483;DHT22;9882;51.166;6.992;2022-08-05T00:07:36;25.10;99.90
19483;DHT22;9882;51.166;6.992;2022-08-05T00:10:06;25.70;99.90
19483;DHT22;9882;51.166;6.992;2022-08-05T00:12:35;25.60;99.90
19483;DHT22;9882;51.166;6.992;2022-08-05T00:15:04;25.50;99.90
19483;DHT22;9882;51.166;6.992;2022-08-05T00:17:33;25.60;99.90
19483;DHT22;9882;51.166;6.992;2022-08-05T00:20:02;25.60;99.90
19483;DHT22;9882;51.166;6.992;2022-08-05T00:22:32;25.00;99.90
19483;DHT22;9882;51.166;6.992;2022-08-05T00:25:03;25.50;99.90
19483;DHT22;9882;51.166;6.992;2022-08-05T00:27:32;25.20;99.90
19483;DHT22;9882;51.166;6.992;2022-08-05T00:30:01;25.60;99.90
19483;DHT22;9882;51.166;6.992;2022-08-05T00:32:30;25.50;99.90
19483;DHT22;9882;51.166;6.992;2022-08-05T00:34:59;25.20;99.90
19483;DHT22;9882;51.166;6.992;2022-08-05T00:37:27;25.30;99.90
19483;DHT22;9882;51.166;6.992;2022-08-05T00:39:58;25.70;99.90
19483;DHT22;9882;51.166;6.992;2022-08-05T00:42:31;25.80;99.90
19483;DHT22;9882;51.166;6.992;2022-08-05T00:45:00;25.50;99.90
19483;DHT22;9882;51.166;6.992;2022-08-05T00:47:29;25.60;99.90
19483;DHT22;9882;51.166;6.992;2022-08-05T00:49:58;25.80;99.90
19483;DHT22;9882;51.166;6.992;2022-08-05T00:52:27;25.80;99.90
19483;DHT22;9882;51.166;6.992;2022-08-05T00:54:55;25.70;99.90
19483;DHT22;9882;51.166;6.992;2022-08-05T00:57:25;25.70;99.90
19483;DHT22;9882;51.166;6.992;2022-08-05T00:59:54;25.50;99.90
19483;DHT22;9882;51.166;6.992;2022-08-05T01:02:23;25.10;99.90
19483;DHT22;9882;51.166;6.992;2022-08-05T01:04:52;24.70;99.90
19483;DHT22;9882;51.166;6.992;2022-08-05T01:07:20;24.30;99.90
19483;DHT22;9882;51.166;6.992;2022-08-05T01:09:49;23.60;99.90
19483;DHT22;9882;51.166;6.992;2022-08-05T01:12:20;23.50;99.90
19483;DHT22;9882;51.166;6.992;2022-08-05T01:14:56;23.10;99.90
19483;DHT22;9882;51.166;6.992;2022-08-05T01:17:30;22.60;99.90
19483;DHT22;9882;51.166;6.992;2022-08-05T01:20:09;22.90;99.90
19483;DHT22;9882;51.166;6.992;2022-08-05T01:22:50;23.50;99.90
19483;DHT22;9882;51.166;6.992;2022-08-05T01:25:42;23.10;99.90
19483;DHT22;9882;51.166;6.992;2022-08-05T01:28:17;24.20;99.90
19483;DHT22;9882;51.166;6.992;2022-08-05T01:30:52;24.10;99.90
19483;DHT22;9882;51.166;6.992;2022-08-05T01:33:24;24.60;99.90
19483;DHT22;9882;51.166;6.992;2022-08-05T01:35:58;24.10;99.90
19483;DHT22;9882;51.166;6.992;2022-08-05T01:38:29;22.00;99.90
19483;DHT22;9882;51.166;6.992;2022-08-05T01:41:00;22.60;99.90
19483;DHT22;9882;51.166;6.992;2022-08-05T01:43:31;22.70;99.90
19483;DHT22;9882;51.166;6.992;2022-08-05T01:46:02;22.10;99.90
19483;DHT22;9882;51.166;6.992;2022-08-05T01:48:34;22.70;99.90
19483;DHT22;9882;51.166;6.992;2022-08-05T01:51:04;22.40;99.90
19483;DHT22;9882;51.166;6.992;2022-08-05T01:53:34;22.00;99.90
19483;DHT22;9882;51.166;6.992;2022-08-05T01:56:04;23.30;99.90
19483;DHT22;9882;51.166;6.992;2022-08-05T01:58:36;23.60;99.90
19483;DHT22;9882;51.166;6.992;2022-08-05T02:01:06;23.70;99.90
19483;DHT22;9882;51.166;6.992;2022-08-05T02:03:37;23.70;99.90
19483;DHT22;9882;51.166;6.992;2022-08-05T02:06:07;24.10;99.90
19483;DHT22;9882;51.166;6.992;2022-08-05T02:08:37;24.00;99.90
19483;DHT22;9882;51.166;6.992;2022-08-05T02:11:10;21.80;99.90
19483;DHT22;9882;51.166;6.992;2022-08-05T02:13:44;21.60;99.90
19483;DHT22;9882;51.166;6.992;2022-08-05T02:16:19;20.80;99.90
19483;DHT22;9882;51.166;6.992;2022-08-05T02:18:51;21.10;99.90
19483;DHT22;9882;51.166;6.992;2022-08-05T02:21:24;20.60;99.90
19483;DHT22;9882;51.166;6.992;2022-08-05T02:23:57;20.30;99.90
19483;DHT22;9882;51.166;6.992;2022-08-05T02:26:34;20.40;99.90
19483;DHT22;9882;51.166;6.992;2022-08-05T02:29:05;20.10;99.90
19483;DHT22;9882;51.166;6.992;2022-08-05T02:31:36;20.20;99.90
19483;DHT22;9882;51.166;6.992;2022-08-05T02:34:08;20.10;99.90
19483;DHT22;9882;51.166;6.992;2022-08-05T02:36:42;20.40;99.90
19483;DHT22;9882;51.166;6.992;2022-08-05T02:39:14;21.00;99.90
19483;DHT22;9882;51.166;6.992;2022-08-05T02:41:45;20.00;99.90
19483;DHT22;9882;51.166;6.992;2022-08-05T02:44:16;20.00;99.90
19483;DHT22;9882;51.166;6.992;2022-08-05T02:46:46;20.60;99.90
19483;DHT22;9882;51.166;6.992;2022-08-05T02:49:16;22.00;99.90
19483;DHT22;9882;51.166;6.992;2022-08-05T02:51:45;21.70;99.90
19483;DHT22;9882;51.166;6.992;2022-08-05T02:54:15;20.60;99.90
19483;DHT22;9882;51.166;6.992;2022-08-05T02:56:45;20.90;99.90
19483;DHT22;9882;51.166;6.992;2022-08-05T02:59:17;21.30;99.90
19483;DHT22;9882;51.166;6.992;2022-08-05T03:01:48;20.90;99.90
19483;DHT22;9882;51.166;6.992;2022-08-05T03:04:18;21.30;99.90
19483;DHT22;9882;51.166;6.992;2022-08-05T03:06:48;22.20;99.90
19483;DHT22;9882;51.166;6.992;2022-08-05T03:12:52;22.70;99.90
19483;DHT22;9882;51.166;6.992;2022-08-05T03:15:22;23.00;99.90
19483;DHT22;9882;51.166;6.992;2022-08-05T03:17:52;22.60;99.90
19483;DHT22;9882;51.166;6.992;2022-08-05T03:20:21;21.80;99.90
19483;DHT22;9882;51.166;6.992;2022-08-05T03:22:50;22.00;99.90
19483;DHT22;9882;51.166;6.992;2022-08-05T03:25:19;21.30;99.90
19483;DHT22;9882;51.166;6.992;2022-08-05T03:27:50;21.20;99.90
19483;DHT22;9882;51.166;6.992;2022-08-05T03:30:19;22.00;99.90
19483;DHT22;9882;51.166;6.992;2022-08-05T03:32:49;22.20;99.90
19483;DHT22;9882;51.166;6.992;2022-08-05T03:35:19;22.30;99.90
19483;DHT22;9882;51.166;6.992;2022-08-05T03:37:48;22.60;99.90
19483;DHT22;9882;51.166;6.992;2022-08-05T03:40:16;22.60;99.90
19483;DHT22;9882;51.166;6.992;2022-08-05T03:42:45;22.30;99.90
19483;DHT22;9882;51.166;6.992;2022-08-05T03:45:13;22.70;99.90
19483;DHT22;9882;51.166;6.992;2022-08-05T03:47:42;22.10;99.90
19483;DHT22;9882;51.166;6.992;2022-08-05T03:50:12;22.20;99.90
19483;DHT22;9882;51.166;6.992;2022-08-05T03:52:46;22.60;99.90
19483;DHT22;9882;51.166;6.992;2022-08-05T03:55:22;22.80;99.90
19483;DHT22;9882;51.166;6.992;2022-08-05T03:57:53;23.00;99.90
19483;DHT22;9882;51.166;6.992;2022-08-05T04:00:23;23.00;99.90
19483;DHT22;9882;51.166;6.992;2022-08-05T04:02:58;23.10;99.90
19483;DHT22;9882;51.166;6.992;2022-08-05T04:05:32;23.00;99.90
19483;DHT22;9882;51.166;6.992;2022-08-05T04:08:03;23.00;99.90
19483;DHT22;9882;51.166;6.992;2022-08-05T04:10:34;22.70;99.90
19483;DHT22;9882;51.166;6.992;2022-08-05T04:13:05;22.90;99.90
19483;DHT22;9882;51.166;6.992;2022-08-05T04:15:34;23.00;99.90
19483;DHT22;9882;51.166;6.992;2022-08-05T04:18:04;22.80;99.90
19483;DHT22;9882;51.166;6.992;2022-08-05T04:20:35;22.90;99.90
19483;DHT22;9882;51.166;6.992;2022-08-05T04:23:04;23.00;99.90
19483;DHT22;9882;51.166;6.992;2022-08-05T04:25:32;22.90;99.90
19483;DHT22;9882;51.166;6.992;2022-08-05T04:28:01;22.90;99.90
19483;DHT22;9882;51.166;6.992;2022-08-05T04:30:32;23.00;99.90
19483;DHT22;9882;51.166;6.992;2022-08-05T04:33:00;22.90;99.90
19483;DHT22;9882;51.166;6.992;2022-08-05T04:35:29;22.90;99.90
19483;DHT22;9882;51.166;6.992;2022-08-05T04:37:59;22.20;99.90
19483;DHT22;9882;51.166;6.992;2022-08-05T04:40:32;21.70;99.90
19483;DHT22;9882;51.166;6.992;2022-08-05T04:43:01;21.30;99.90
19483;DHT22;9882;51.166;6.992;2022-08-05T04:45:30;21.00;99.90
19483;DHT22;9882;51.166;6.992;2022-08-05T04:48:04;21.30;99.90
19483;DHT22;9882;51.166;6.992;2022-08-05T04:50:38;21.10;99.90
19483;DHT22;9882;51.166;6.992;2022-08-05T04:53:09;20.70;99.90
19483;DHT22;9882;51.166;6.992;2022-08-05T04:55:38;19.90;99.90
19483;DHT22;9882;51.166;6.992;2022-08-05T04:58:10;20.00;99.90
19483;DHT22;9882;51.166;6.992;2022-08-05T05:00:39;20.20;99.90
19483;DHT22;9882;51.166;6.992;2022-08-05T05:03:09;20.00;99.90
19483;DHT22;9882;51.166;6.992;2022-08-05T05:05:37;19.50;99.90
19483;DHT22;9882;51.166;6.992;2022-08-05T05:08:09;19.60;99.90
19483;DHT22;9882;51.166;6.992;2022-08-05T05:10:39;20.10;99.90
19483;DHT22;9882;51.166;6.992;2022-08-05T05:13:10;20.70;99.90
19483;DHT22;9882;51.166;6.992;2022-08-05T05:15:39;21.20;99.90
19483;DHT22;9882;51.166;6.992;2022-08-05T05:18:11;21.20;99.90
19483;DHT22;9882;51.166;6.992;2022-08-05T05:20:41;21.50;99.90
19483;DHT22;9882;51.166;6.992;2022-08-05T05:23:13;21.80;99.90
19483;DHT22;9882;51.166;6.992;2022-08-05T05:25:42;21.80;99.90
19483;DHT22;9882;51.166;6.992;2022-08-05T05:28:11;21.50;99.90
19483;DHT22;9882;51.166;6.992;2022-08-05T05:30:40;21.50;99.90
19483;DHT22;9882;51.166;6.992;2022-08-05T05:33:09;21.20;99.90
19483;DHT22;9882;51.166;6.992;2022-08-05T05:35:46;20.90;99.90
19483;DHT22;9882;51.166;6.992;2022-08-05T05:38:16;21.50;99.90
19483;DHT22;9882;51.166;6.992;2022-08-05T05:40:45;21.70;99.90
19483;DHT22;9882;51.166;6.992;2022-08-05T05:43:14;21.70;99.90
19483;DHT22;9882;51.166;6.992;2022-08-05T05:45:43;21.90;99.90
19483;DHT22;9882;51.166;6.992;2022-08-05T05:48:11;21.60;99.90
19483;DHT22;9882;51.166;6.992;2022-08-05T05:50:40;21.90;99.90
19483;DHT22;9882;51.166;6.992;2022-08-05T05:53:09;22.00;99.90
19483;DHT22;9882;51.166;6.992;2022-08-05T05:55:39;21.50;99.90
19483;DHT22;9882;51.166;6.992;2022-08-05T05:58:07;21.40;99.90
19483;DHT22;9882;51.166;6.992;2022-08-05T06:00:36;21.80;99.90
19483;DHT22;9882;51.166;6.992;2022-08-05T06:03:05;21.90;99.90
19483;DHT22;9882;51.166;6.992;2022-08-05T06:05:33;21.40;99.90
19483;DHT22;9882;51.166;6.992;2022-08-05T06:08:02;21.80;99.90
19483;DHT22;9882;51.166;6.992;2022-08-05T06:10:31;21.00;99.90
19483;DHT22;9882;51.166;6.992;2022-08-05T06:13:02;21.10;99.90
19483;DHT22;9882;51.166;6.992;2022-08-05T06:15:31;21.10;99.90
19483;DHT22;9882;51.166;6.992;2022-08-05T06:18:00;20.80;99.90
19483;DHT22;9882;51.166;6.992;2022-08-05T06:20:28;20.10;99.90
19483;DHT22;9882;51.166;6.992;2022-08-05T06:23:22;20.80;99.90
19483;DHT22;9882;51.166;6.992;2022-08-05T06:25:51;20.50;99.90
19483;DHT22;9882;51.166;6.992;2022-08-05T06:28:22;20.90;99.90
19483;DHT22;9882;51.166;6.992;2022-08-05T06:30:51;20.40;99.90
19483;DHT22;9882;51.166;6.992;2022-08-05T06:33:20;20.40;99.90
19483;DHT22;9882;51.166;6.992;2022-08-05T06:35:48;20.10;99.90
19483;DHT22;9882;51.166;6.992;2022-08-05T06:38:17;20.30;99.90
19483;DHT22;9882;51.166;6.992;2022-08-05T06:40:46;20.40;99.90
19483;DHT22;9882;51.166;6.992;2022-08-05T06:43:15;20.40;99.90
19483;DHT22;9882;51.166;6.992;2022-08-05T06:45:45;20.80;99.90
19483;DHT22;9882;51.166;6.992;2022-08-05T06:48:13;20.30;99.90
19483;DHT22;9882;51.166;6.992;2022-08-05T06:50:42;20.40;99.90
19483;DHT22;9882;51.166;6.992;2022-08-05T06:53:11;19.80;99.90
19483;DHT22;9882;51.166;6.992;2022-08-05T06:55:41;19.30;99.90
19483;DHT22;9882;51.166;6.992;2022-08-05T06:58:10;19.50;99.90
19483;DHT22;9882;51.166;6.992;2022-08-05T07:00:38;19.70;99.90
19483;DHT22;9882;51.166;6.992;2022-08-05T07:03:08;19.00;99.90
19483;DHT22;9882;51.166;6.992;2022-08-05T07:05:37;18.90;99.90
19483;DHT22;9882;51.166;6.992;2022-08-05T07:08:06;18.80;99.90
19483;DHT22;9882;51.166;6.992;2022-08-05T07:10:34;18.90;99.90
19483;DHT22;9882;51.166;6.992;2022-08-05T07:13:06;19.30;99.90
19483;DHT22;9882;51.166;6.992;2022-08-05T07:15:52;19.30;99.90
19483;DHT22;9882;51.166;6.992;2022-08-05T07:18:40;19.40;99.90
19483;DHT22;9882;51.166;6.992;2022-08-05T07:21:08;20.10;99.90
19483;DHT22;9882;51.166;6.992;2022-08-05T07:23:40;19.90;99.90
19483;DHT22;9882;51.166;6.992;2022-08-05T07:26:09;19.50;99.90
19483;DHT22;9882;51.166;6.992;2022-08-05T07:28:37;19.00;99.90
19483;DHT22;9882;51.166;6.992;2022-08-05T07:31:06;18.80;99.90
19483;DHT22;9882;51.166;6.992;2022-08-05T07:33:35;18.90;99.90
19483;DHT22;9882;51.166;6.992;2022-08-05T07:36:06;19.90;99.90
19483;DHT22;9882;51.166;6.992;2022-08-05T07:38:35;19.90;99.90
19483;DHT22;9882;51.166;6.992;2022-08-05T07:41:06;20.10;99.90
19483;DHT22;9882;51.166;6.992;2022-08-05T07:43:35;20.00;99.90
19483;DHT22;9882;51.166;6.992;2022-08-05T07:46:03;19.10;99.90
19483;DHT22;9882;51.166;6.992;2022-08-05T07:51:17;18.90;99.90
19483;DHT22;9882;51.166;6.992;2022-08-05T07:53:46;18.90;99.90
19483;DHT22;9882;51.166;6.992;2022-08-05T07:56:14;18.60;99.90
19483;DHT22;9882;51.166;6.992;2022-08-05T07:58:43;19.10;99.90
19483;DHT22;9882;51.166;6.992;2022-08-05T08:01:12;18.50;99.90
19483;DHT22;9882;51.166;6.992;2022-08-05T08:03:41;18.30;99.90
19483;DHT22;9882;51.166;6.992;2022-08-05T08:06:10;18.10;99.90
19483;DHT22;9882;51.166;6.992;2022-08-05T08:08:40;18.50;99.90
19483;DHT22;9882;51.166;6.992;2022-08-05T08:11:08;18.90;99.90
19483;DHT22;9882;51.166;6.992;2022-08-05T08:13:37;19.30;99.90
19483;DHT22;9882;51.166;6.992;2022-08-05T08:16:07;19.10;99.90
19483;DHT22;9882;51.166;6.992;2022-08-05T08:18:36;18.90;99.90
19483;DHT22;9882;51.166;6.992;2022-08-05T08:21:28;19.20;99.90
19483;DHT22;9882;51.166;6.992;2022-08-05T08:23:58;19.00;99.90
19483;DHT22;9882;51.166;6.992;2022-08-05T08:26:30;18.80;99.90
19483;DHT22;9882;51.166;6.992;2022-08-05T08:28:59;18.70;99.90
19483;DHT22;9882;51.166;6.992;2022-08-05T08:31:28;18.60;99.90
19483;DHT22;9882;51.166;6.992;2022-08-05T08:33:56;18.40;99.90
19483;DHT22;9882;51.166;6.992;2022-08-05T08:36:26;18.30;99.90
19483;DHT22;9882;51.166;6.992;2022-08-05T08:38:55;18.50;99.90
19483;DHT22;9882;51.166;6.992;2022-08-05T08:41:29;18.90;99.90
19483;DHT22;9882;51.166;6.992;2022-08-05T08:44:00;18.70;99.90
19483;DHT22;9882;51.166;6.992;2022-08-05T08:46:31;18.80;99.90
19483;DHT22;9882;51.166;6.992;2022-08-05T08:49:00;18.00;99.90
19483;DHT22;9882;51.166;6.992;2022-08-05T08:51:38;18.20;99.90
19483;DHT22;9882;51.166;6.992;2022-08-05T08:54:09;18.30;99.90
19483;DHT22;9882;51.166;6.992;2022-08-05T08:56:39;18.60;99.90
19483;DHT22;9882;51.166;6.992;2022-08-05T08:59:08;19.00;99.90
19483;DHT22;9882;51.166;6.992;2022-08-05T09:01:38;18.50;99.90
19483;DHT22;9882;51.166;6.992;2022-08-05T09:04:12;19.30;99.90
19483;DHT22;9882;51.166;6.992;2022-08-05T09:06:46;19.50;99.90
19483;DHT22;9882;51.166;6.992;2022-08-05T09:09:15;19.80;99.90
19483;DHT22;9882;51.166;6.992;2022-08-05T09:11:45;19.00;99.90
19483;DHT22;9882;51.166;6.992;2022-08-05T09:14:13;19.20;99.90
19483;DHT22;9882;51.166;6.992;2022-08-05T09:16:42;18.50;99.90
19483;DHT22;9882;51.166;6.992;2022-08-05T09:19:11;19.20;99.90
19483;DHT22;9882;51.166;6.992;2022-08-05T09:21:40;19.80;99.90
19483;DHT22;9882;51.166;6.992;2022-08-05T09:24:08;19.30;99.90
19483;DHT22;9882;51.166;6.992;2022-08-05T09:26:39;18.50;99.90
19483;DHT22;9882;51.166;6.992;2022-08-05T09:29:09;19.00;99.90
19483;DHT22;9882;51.166;6.992;2022-08-05T09:31:37;19.40;99.90
19483;DHT22;9882;51.166;6.992;2022-08-05T09:34:10;19.50;99.90
19483;DHT22;9882;51.166;6.992;2022-08-05T09:36:42;19.80;99.90
19483;DHT22;9882;51.166;6.992;2022-08-05T09:39:12;19.90;99.90
19483;DHT22;9882;51.166;6.992;2022-08-05T09:41:58;19.60;99.90
19483;DHT22;9882;51.166;6.992;2022-08-05T09:44:37;19.60;99.90
19483;DHT22;9882;51.166;6.992;2022-08-05T09:47:14;19.40;99.90
19483;DHT22;9882;51.166;6.992;2022-08-05T09:49:44;19.60;99.90
19483;DHT22;9882;51.166;6.992;2022-08-05T09:52:18;19.40;99.90
19483;DHT22;9882;51.166;6.992;2022-08-05T09:54:59;19.80;99.90
19483;DHT22;9882;51.166;6.992;2022-08-05T09:57:34;19.70;99.90
19483;DHT22;9882;51.166;6.992;2022-08-05T10:00:08;19.10;99.90
19483;DHT22;9882;51.166;6.992;2022-08-05T10:02:40;19.60;99.90
19483;DHT22;9882;51.166;6.992;2022-08-05T10:05:11;19.40;99.90
19483;DHT22;9882;51.166;6.992;2022-08-05T10:07:48;19.00;99.90
19483;DHT22;9882;51.166;6.992;2022-08-05T10:10:19;19.10;99.90
19483;DHT22;9882;51.166;6.992;2022-08-05T10:12:49;18.80;99.90
19483;DHT22;9882;51.166;6.992;2022-08-05T10:15:22;18.90;99.90
19483;DHT22;9882;51.166;6.992;2022-08-05T10:18:12;18.80;99.90
19483;DHT22;9882;51.166;6.992;2022-08-05T10:20:43;19.40;99.90
19483;DHT22;9882;51.166;6.992;2022-08-05T10:23:14;19.40;99.90
19483;DHT22;9882;51.166;6.992;2022-08-05T10:25:44;19.70;99.90
19483;DHT22;9882;51.166;6.992;2022-08-05T10:28:13;19.80;99.90
19483;DHT22;9882;51.166;6.992;2022-08-05T10:30:44;19.70;99.90
19483;DHT22;9882;51.166;6.992;2022-08-05T10:33:13;19.80;99.90
19483;DHT22;9882;51.166;6.992;2022-08-05T10:35:41;19.90;99.90
19483;DHT22;9882;51.166;6.992;2022-08-05T10:38:12;19.70;99.90
19483;DHT22;9882;51.166;6.992;2022-08-05T10:40:46;19.40;99.90
19483;DHT22;9882;51.166;6.992;2022-08-05T10:43:30;19.60;99.90
19483;DHT22;9882;51.166;6.992;2022-08-05T10:46:03;19.10;99.90
19483;DHT22;9882;51.166;6.992;2022-08-05T10:48:35;18.80;99.90
19483;DHT22;9882;51.166;6.992;2022-08-05T10:51:06;18.90;99.90
19483;DHT22;9882;51.166;6.992;2022-08-05T10:53:41;19.10;99.90
19483;DHT22;9882;51.166;6.992;2022-08-05T10:56:14;19.00;99.90
19483;DHT22;9882;51.166;6.992;2022-08-05T10:58:49;19.40;99.90
19483;DHT22;9882;51.166;6.992;2022-08-05T11:01:27;19.20;99.90
19483;DHT22;9882;51.166;6.992;2022-08-05T11:04:02;19.30;99.90
19483;DHT22;9882;51.166;6.992;2022-08-05T11:06:32;19.60;99.90
19483;DHT22;9882;51.166;6.992;2022-08-05T11:09:17;19.60;99.90
19483;DHT22;9882;51.166;6.992;2022-08-05T11:11:47;19.90;99.90
19483;DHT22;9882;51.166;6.992;2022-08-05T11:14:25;20.00;99.90
19483;DHT22;9882;51.166;6.992;2022-08-05T11:17:30;19.90;99.90
19483;DHT22;9882;51.166;6.992;2022-08-05T11:20:30;19.20;99.90
19483;DHT22;9882;51.166;6.992;2022-08-05T11:23:34;19.60;99.90
19483;DHT22;9882;51.166;6.992;2022-08-05T11:26:04;19.90;99.90
19483;DHT22;9882;51.166;6.992;2022-08-05T11:28:42;20.10;99.90
19483;DHT22;9882;51.166;6.992;2022-08-05T11:31:25;19.90;99.90
19483;DHT22;9882;51.166;6.992;2022-08-05T11:34:07;19.80;99.90
19483;DHT22;9882;51.166;6.992;2022-08-05T11:36:48;19.90;99.90
19483;DHT22;9882;51.166;6.992;2022-08-05T11:39:48;19.90;99.90
19483;DHT22;9882;51.166;6.992;2022-08-05T11:42:22;19.90;99.90
19483;DHT22;9882;51.166;6.992;2022-08-05T11:44:59;20.50;99.90
19483;DHT22;9882;51.166;6.992;2022-08-05T11:47:28;20.70;99.90
19483;DHT22;9882;51.166;6.992;2022-08-05T11:49:59;20.80;99.90
19483;DHT22;9882;51.166;6.992;2022-08-05T11:52:28;21.00;99.90
19483;DHT22;9882;51.166;6.992;2022-08-05T11:54:57;20.80;99.90
19483;DHT22;9882;51.166;6.992;2022-08-05T11:57:27;20.70;99.90
19483;DHT22;9882;51.166;6.992;2022-08-05T11:59:56;20.50;99.90
19483;DHT22;9882;51.166;6.992;2022-08-05T12:02:27;20.50;99.90
19483;DHT22;9882;51.166;6.992;2022-08-05T12:05:02;20.90;99.90
19483;DHT22;9882;51.166;6.992;2022-08-05T12:07:33;21.10;99.90
19483;DHT22;9882;51.166;6.992;2022-08-05T12:10:03;20.90;99.90
19483;DHT22;9882;51.166;6.992;2022-08-05T12:12:36;21.00;99.90
19483;DHT22;9882;51.166;6.992;2022-08-05T12:15:05;21.20;99.90
19483;DHT22;9882;51.166;6.992;2022-08-05T12:17:35;21.40;99.90
19483;DHT22;9882;51.166;6.992;2022-08-05T12:20:06;21.10;99.90
19483;DHT22;9882;51.166;6.992;2022-08-05T12:22:35;21.30;99.90
19483;DHT22;9882;51.166;6.992;2022-08-05T12:25:04;21.40;99.90
19483;DHT22;9882;51.166;6.992;2022-08-05T12:27:33;21.50;99.90
19483;DHT22;9882;51.166;6.992;2022-08-05T12:30:06;21.70;99.90
19483;DHT22;9882;51.166;6.992;2022-08-05T12:32:42;22.00;99.90
19483;DHT22;9882;51.166;6.992;2022-08-05T12:35:14;22.00;99.90
19483;DHT22;9882;51.166;6.992;2022-08-05T12:37:45;22.30;99.90
19483;DHT22;9882;51.166;6.992;2022-08-05T12:40:15;22.20;99.90
19483;DHT22;9882;51.166;6.992;2022-08-05T12:42:46;22.20;99.90
19483;DHT22;9882;51.166;6.992;2022-08-05T12:45:15;21.90;99.90
19483;DHT22;9882;51.166;6.992;2022-08-05T12:47:45;21.80;99.90
19483;DHT22;9882;51.166;6.992;2022-08-05T12:50:16;21.80;99.90
19483;DHT22;9882;51.166;6.992;2022-08-05T12:52:54;22.10;99.90
19483;DHT22;9882;51.166;6.992;2022-08-05T12:55:24;22.20;99.90
19483;DHT22;9882;51.166;6.992;2022-08-05T12:57:54;22.00;99.90
19483;DHT22;9882;51.166;6.992;2022-08-05T13:00:25;22.10;99.90
19483;DHT22;9882;51.166;6.992;2022-08-05T13:02:54;22.10;99.90
19483;DHT22;9882;51.166;6.992;2022-08-05T13:05:25;22.20;99.90
19483;DHT22;9882;51.166;6.992;2022-08-05T13:07:56;22.40;99.90
19483;DHT22;9882;51.166;6.992;2022-08-05T13:10:30;21.90;99.90
19483;DHT22;9882;51.166;6.992;2022-08-05T13:12:59;21.80;99.90
19483;DHT22;9882;51.166;6.992;2022-08-05T13:15:29;22.20;99.90
19483;DHT22;9882;51.166;6.992;2022-08-05T13:17:58;22.30;99.90
19483;DHT22;9882;51.166;6.992;2022-08-05T13:20:39;22.70;99.90
19483;DHT22;9882;51.166;6.992;2022-08-05T13:23:07;22.90;99.90
19483;DHT22;9882;51.166;6.992;2022-08-05T13:25:36;22.90;99.90
19483;DHT22;9882;51.166;6.992;2022-08-05T13:28:10;23.10;99.90
19483;DHT22;9882;51.166;6.992;2022-08-05T13:30:39;23.10;99.90
19483;DHT22;9882;51.166;6.992;2022-08-05T13:33:07;23.00;99.90
19483;DHT22;9882;51.166;6.992;2022-08-05T13:35:37;22.80;99.90
19483;DHT22;9882;51.166;6.992;2022-08-05T13:38:06;22.60;99.90
19483;DHT22;9882;51.166;6.992;2022-08-05T13:40:35;22.90;99.90
19483;DHT22;9882;51.166;6.992;2022-08-05T13:43:03;22.80;99.90
19483;DHT22;9882;51.166;6.992;2022-08-05T13:45:32;22.30;99.90
19483;DHT22;9882;51.166;6.992;2022-08-05T13:48:00;22.10;99.90
19483;DHT22;9882;51.166;6.992;2022-08-05T13:50:29;22.40;99.90
19483;DHT22;9882;51.166;6.992;2022-08-05T13:52:59;21.90;99.90
19483;DHT22;9882;51.166;6.992;2022-08-05T13:55:27;21.90;99.90
19483;DHT22;9882;51.166;6.992;2022-08-05T13:57:56;22.10;99.90
19483;DHT22;9882;51.166;6.992;2022-08-05T14:00:24;22.30;99.90
19483;DHT22;9882;51.166;6.992;2022-08-05T14:02:54;22.00;99.90
19483;DHT22;9882;51.166;6.992;2022-08-05T14:05:23;21.50;99.90
19483;DHT22;9882;51.166;6.992;2022-08-05T14:07:52;21.40;99.90
19483;DHT22;9882;51.166;6.992;2022-08-05T14:10:24;21.40;99.90
19483;DHT22;9882;51.166;6.992;2022-08-05T14:12:53;21.40;99.90
19483;DHT22;9882;51.166;6.992;2022-08-05T14:15:22;21.20;99.90
19483;DHT22;9882;51.166;6.992;2022-08-05T14:17:51;21.50;99.90
19483;DHT22;9882;51.166;6.992;2022-08-05T14:20:19;21.50;99.90
19483;DHT22;9882;51.166;6.992;2022-08-05T14:22:48;21.30;99.90
19483;DHT22;9882;51.166;6.992;2022-08-05T14:25:17;21.40;99.90
19483;DHT22;9882;51.166;6.992;2022-08-05T14:27:50;21.60;99.90
19483;DHT22;9882;51.166;6.992;2022-08-05T14:30:19;21.70;99.90
19483;DHT22;9882;51.166;6.992;2022-08-05T14:32:48;22.10;99.90
19483;DHT22;9882;51.166;6.992;2022-08-05T14:35:16;22.00;99.90
19483;DHT22;9882;51.166;6.992;2022-08-05T14:37:45;22.00;99.90
19483;DHT22;9882;51.166;6.992;2022-08-05T14:40:16;21.90;99.90
19483;DHT22;9882;51.166;6.992;2022-08-05T14:42:44;22.60;99.90
19483;DHT22;9882;51.166;6.992;2022-08-05T14:45:14;22.30;99.90
19483;DHT22;9882;51.166;6.992;2022-08-05T14:47:43;22.30;99.90
19483;DHT22;9882;51.166;6.992;2022-08-05T14:50:11;22.00;99.90
19483;DHT22;9882;51.166;6.992;2022-08-05T14:52:43;22.10;99.90
19483;DHT22;9882;51.166;6.992;2022-08-05T14:55:18;21.80;99.90
19483;DHT22;9882;51.166;6.992;2022-08-05T14:57:47;21.80;99.90
19483;DHT22;9882;51.166;6.992;2022-08-05T15:00:17;22.00;99.90
19483;DHT22;9882;51.166;6.992;2022-08-05T15:02:46;22.10;99.90
19483;DHT22;9882;51.166;6.992;2022-08-05T15:05:14;22.20;99.90
19483;DHT22;9882;51.166;6.992;2022-08-05T15:07:43;22.30;99.90
19483;DHT22;9882;51.166;6.992;2022-08-05T15:10:11;22.30;99.90
19483;DHT22;9882;51.166;6.992;2022-08-05T15:12:40;22.30;99.90
19483;DHT22;9882;51.166;6.992;2022-08-05T15:15:25;22.50;99.90
19483;DHT22;9882;51.166;6.992;2022-08-05T15:17:54;22.00;99.90
19483;DHT22;9882;51.166;6.992;2022-08-05T15:20:22;22.10;99.90
19483;DHT22;9882;51.166;6.992;2022-08-05T15:22:51;22.30;99.90
19483;DHT22;9882;51.166;6.992;2022-08-05T15:25:20;22.00;99.90
19483;DHT22;9882;51.166;6.992;2022-08-05T15:27:50;22.40;99.90
19483;DHT22;9882;51.166;6.992;2022-08-05T15:30:18;22.30;99.90
19483;DHT22;9882;51.166;6.992;2022-08-05T15:32:48;22.60;99.90
19483;DHT22;9882;51.166;6.992;2022-08-05T15:35:42;22.90;99.90
19483;DHT22;9882;51.166;6.992;2022-08-05T15:38:12;22.60;99.90
19483;DHT22;9882;51.166;6.992;2022-08-05T15:40:40;22.40;99.90
19483;DHT22;9882;51.166;6.992;2022-08-05T15:43:09;22.30;99.90
19483;DHT22;9882;51.166;6.992;2022-08-05T15:45:42;22.20;99.90
19483;DHT22;9882;51.166;6.992;2022-08-05T15:48:13;22.10;99.90
19483;DHT22;9882;51.166;6.992;2022-08-05T15:50:41;22.00;99.90
19483;DHT22;9882;51.166;6.992;2022-08-05T15:53:13;22.10;99.90
19483;DHT22;9882;51.166;6.992;2022-08-05T15:55:42;22.10;99.90
19483;DHT22;9882;51.166;6.992;2022-08-05T15:58:11;22.40;99.90
19483;DHT22;9882;51.166;6.992;2022-08-05T16:00:39;22.60;99.90
19483;DHT22;9882;51.166;6.992;2022-08-05T16:03:15;22.70;99.90
19483;DHT22;9882;51.166;6.992;2022-08-05T16:05:44;23.60;99.90
19483;DHT22;9882;51.166;6.992;2022-08-05T16:08:15;24.40;99.90
19483;DHT22;9882;51.166;6.992;2022-08-05T16:10:44;24.80;99.90
19483;DHT22;9882;51.166;6.992;2022-08-05T16:13:15;23.80;99.90
19483;DHT22;9882;51.166;6.992;2022-08-05T16:15:45;23.10;99.90